Time;durP1;ratioP1;P1;durP2;ratioP2;P2;SDS_P1;SDS_P2;PMS_P1;PMS_P2;Temp;Humidity;BMP_temperature;BMP_pressure;BME280_temperature;BME280_humidity;BME280_pressure;Samples;Min_cycle;Max_cycle;Signal;HPM_P1;HPM_P2
2023/01/11 00:00:13;;;;;;;0.47;0.45;;;9.50;99.90;;;;;;5080951;28;20400;-70
2023/01/11 00:02:38;;;;;;;0.20;0.20;;;9.50;99.90;;;;;;5079508;28;20408;-70
2023/01/11 00:05:05;;;;;;;0.13;0.13;;;9.50;99.90;;;;;;5107211;28;20043;-70
2023/01/11 00:07:30;;;;;;;0.77;0.77;;;9.60;99.90;;;;;;5083412;28;20391;-71
2023/01/11 00:09:56;;;;;;;0.10;0.10;;;9.60;99.90;;;;;;5082189;28;20131;-71
2023/01/11 00:12:21;;;;;;;0.82;0.82;;;9.60;99.90;;;;;;5070962;28;20044;-71
2023/01/11 00:14:47;;;;;;;0.00;0.00;;;9.60;99.90;;;;;;5091084;28;20093;-70
2023/01/11 00:17:13;;;;;;;0.10;0.10;;;9.60;99.90;;;;;;5069134;28;20131;-71
2023/01/11 00:19:38;;;;;;;0.10;0.10;;;9.60;99.90;;;;;;5103305;28;20035;-71
2023/01/11 00:22:04;;;;;;;0.10;0.10;;;9.70;99.90;;;;;;5112255;28;20036;-71
2023/01/11 00:24:29;;;;;;;0.28;0.28;;;9.70;99.90;;;;;;5087637;28;20051;-71
2023/01/11 00:26:55;;;;;;;0.10;0.10;;;9.70;99.90;;;;;;5112565;28;20043;-71
2023/01/11 00:29:20;;;;;;;0.10;0.10;;;9.70;99.90;;;;;;5093380;28;20040;-70
2023/01/11 00:31:46;;;;;;;0.10;0.10;;;9.80;99.90;;;;;;5099266;28;20050;-71
2023/01/11 00:34:11;;;;;;;0.10;0.10;;;9.80;99.90;;;;;;5099283;28;20052;-72
2023/01/11 00:36:37;;;;;;;0.10;0.10;;;9.80;99.90;;;;;;5088924;28;20038;-72
2023/01/11 00:39:03;;;;;;;0.45;0.45;;;9.80;99.90;;;;;;5102214;28;20043;-72
2023/01/11 00:49:42;;;;;;;0.10;0.10;;;10.00;99.90;;;;;;5087970;28;20080;-73
2023/01/11 00:52:08;;;;;;;0.47;0.47;;;10.00;99.90;;;;;;5067532;28;20044;-72
2023/01/11 00:54:41;;;;;;;0.03;0.03;;;10.00;99.90;;;;;;5077930;28;20503;-73
2023/01/11 00:57:07;;;;;;;0.10;0.10;;;10.10;99.90;;;;;;5112560;28;20513;-72
2023/01/11 00:59:38;;;;;;;0.00;0.00;;;10.10;99.90;;;;;;5079037;28;20040;-72
2023/01/11 01:02:04;;;;;;;0.55;0.55;;;10.10;99.90;;;;;;5088905;28;20118;-72
2023/01/11 01:04:30;;;;;;;0.00;0.00;;;10.20;99.90;;;;;;5088833;28;20089;-73
2023/01/11 01:06:55;;;;;;;0.10;0.10;;;10.20;99.90;;;;;;5069095;28;20048;-73
2023/01/11 01:09:21;;;;;;;0.10;0.10;;;10.20;99.90;;;;;;5087253;28;20047;-73
2023/01/11 01:11:47;;;;;;;0.10;0.10;;;10.30;99.90;;;;;;5061447;28;20048;-73
2023/01/11 01:14:25;;;;;;;0.10;0.10;;;10.30;99.90;;;;;;5103052;28;20048;-73
2023/01/11 01:16:51;;;;;;;0.10;0.10;;;10.30;99.90;;;;;;5112669;28;20039;-73
2023/01/11 01:19:18;;;;;;;0.52;0.52;;;10.40;99.90;;;;;;5101529;28;20562;-73
2023/01/11 01:21:43;;;;;;;0.10;0.10;;;10.40;99.90;;;;;;5074734;28;20083;-73
2023/01/11 01:24:09;;;;;;;0.30;0.30;;;10.40;99.90;;;;;;5108159;28;20074;-72
2023/01/11 01:26:35;;;;;;;0.10;0.10;;;10.40;99.90;;;;;;5089397;28;20049;-72
2023/01/11 01:29:01;;;;;;;0.10;0.10;;;10.40;99.90;;;;;;5094573;28;20555;-72
2023/01/11 01:31:27;;;;;;;0.43;0.43;;;10.40;99.90;;;;;;5089245;28;20044;-73
2023/01/11 01:33:52;;;;;;;0.10;0.10;;;10.40;99.90;;;;;;5107737;28;20088;-72
2023/01/11 01:36:18;;;;;;;3.28;1.45;;;10.40;99.90;;;;;;5096379;28;20052;-72
2023/01/11 01:38:43;;;;;;;0.10;0.10;;;10.50;99.90;;;;;;5097202;28;20078;-72
2023/01/11 01:41:11;;;;;;;8.20;3.75;;;10.50;99.90;;;;;;5104366;28;20044;-72
2023/01/11 01:43:50;;;;;;;0.80;0.75;;;10.50;99.90;;;;;;5066923;28;20047;-72
2023/01/11 01:46:17;;;;;;;0.10;0.10;;;10.50;99.90;;;;;;5106930;28;20051;-72
2023/01/11 01:48:48;;;;;;;0.10;0.10;;;10.50;99.90;;;;;;5110886;28;20410;-72
2023/01/11 01:51:25;;;;;;;0.20;0.20;;;10.40;99.90;;;;;;5100205;28;20052;-71
2023/01/11 01:53:55;;;;;;;0.13;0.13;;;10.40;99.90;;;;;;5100588;28;20044;-71
2023/01/11 01:56:32;;;;;;;0.40;0.40;;;10.50;99.90;;;;;;5102658;28;20039;-71
2023/01/11 01:59:03;;;;;;;0.30;0.30;;;10.40;99.90;;;;;;5077864;28;20052;-71
2023/01/11 02:01:48;;;;;;;0.28;0.28;;;10.50;99.90;;;;;;5068900;28;20468;-72
2023/01/11 02:04:34;;;;;;;0.32;0.32;;;10.40;99.90;;;;;;5098637;28;20097;-71
2023/01/11 02:07:10;;;;;;;0.10;0.10;;;10.40;99.90;;;;;;5077637;28;20032;-71
2023/01/11 02:09:57;;;;;;;5.18;1.65;;;10.40;99.90;;;;;;5087344;28;20043;-71
2023/01/11 02:12:30;;;;;;;0.10;0.10;;;10.40;99.90;;;;;;5060627;28;20110;-71
2023/01/11 02:14:59;;;;;;;0.10;0.10;;;10.40;99.90;;;;;;5093305;28;20502;-72
2023/01/11 02:17:25;;;;;;;0.45;0.45;;;10.40;99.90;;;;;;5070312;28;20123;-72
2023/01/11 02:20:09;;;;;;;0.10;0.10;;;10.40;99.90;;;;;;5097254;28;20146;-71
2023/01/11 02:22:49;;;;;;;0.30;0.30;;;10.40;99.90;;;;;;5096427;28;20047;-71
2023/01/11 02:25:54;;;;;;;0.10;0.10;;;10.40;99.90;;;;;;5092360;28;20174;-71
2023/01/11 02:28:40;;;;;;;0.10;0.10;;;10.40;99.90;;;;;;5077692;28;20826;-71
2023/01/11 02:31:08;;;;;;;0.10;0.10;;;10.40;99.90;;;;;;5092892;28;20043;-71
2023/01/11 02:33:43;;;;;;;0.20;0.20;;;10.50;99.90;;;;;;5087418;28;20054;-71
2023/01/11 02:36:21;;;;;;;0.52;0.52;;;10.50;99.90;;;;;;5066548;28;20079;-71
2023/01/11 02:39:05;;;;;;;0.20;0.20;;;10.60;99.90;;;;;;5084047;28;20100;-71
2023/01/11 02:47:41;;;;;;;3.67;1.50;;;10.60;99.90;;;;;;5086685;28;20058;-71
2023/01/11 02:50:30;;;;;;;1.45;1.02;;;10.60;99.90;;;;;;5069895;28;20396;-71
2023/01/11 02:53:29;;;;;;;2.17;2.00;;;10.60;99.90;;;;;;5068169;28;20122;-71
2023/01/11 02:55:59;;;;;;;0.10;0.10;;;10.70;99.90;;;;;;5065634;28;20054;-71
2023/01/11 02:58:28;;;;;;;0.10;0.10;;;10.70;99.90;;;;;;5073353;28;20040;-71
2023/01/11 03:00:57;;;;;;;0.70;0.70;;;10.70;99.90;;;;;;5067029;28;20036;-71
2023/01/11 03:03:26;;;;;;;0.10;0.10;;;10.70;99.90;;;;;;5095886;28;20035;-71
2023/01/11 03:05:56;;;;;;;0.20;0.20;;;10.60;99.90;;;;;;5078923;28;20467;-71
2023/01/11 03:08:34;;;;;;;0.90;0.90;;;10.60;99.90;;;;;;5072529;28;20056;-71
2023/01/11 03:12:50;;;;;;;0.10;0.10;;;10.70;99.90;;;;;;5067368;28;20051;-71
2023/01/11 03:14:25;;;;;;;0.10;0.10;;;10.70;99.90;;;;;;5063338;28;20138;-72
2023/01/11 03:17:37;;;;;;;0.10;0.10;;;10.70;99.90;;;;;;5094971;28;20105;-71
2023/01/11 03:20:26;;;;;;;5.85;2.95;;;10.70;99.90;;;;;;5013294;28;20362;-71
2023/01/11 03:23:06;;;;;;;1.33;1.23;;;10.70;99.90;;;;;;5068046;28;20064;-71
2023/01/11 03:25:59;;;;;;;0.10;0.10;;;10.70;99.90;;;;;;5103191;28;20088;-72
2023/01/11 03:28:31;;;;;;;0.57;0.57;;;10.70;99.90;;;;;;5086444;28;20048;-71
2023/01/11 03:31:08;;;;;;;0.32;0.32;;;10.70;99.90;;;;;;5078251;28;20650;-71
2023/01/11 03:33:40;;;;;;;0.10;0.10;;;10.70;99.90;;;;;;5092284;28;20491;-71
2023/01/11 03:36:20;;;;;;;1.90;1.35;;;10.60;99.90;;;;;;5062701;28;20075;-71
2023/01/11 03:38:53;;;;;;;0.20;0.20;;;10.60;99.90;;;;;;5066340;28;20059;-71
2023/01/11 03:41:23;;;;;;;0.45;0.45;;;10.60;99.90;;;;;;5067270;28;20039;-71
2023/01/11 03:43:50;;;;;;;0.10;0.10;;;10.60;99.90;;;;;;5106004;28;20530;-71
2023/01/11 03:46:30;;;;;;;2.42;1.13;;;10.50;99.90;;;;;;5078378;28;20040;-70
2023/01/11 03:49:07;;;;;;;0.10;0.10;;;10.50;99.90;;;;;;5067031;28;20060;-72
2023/01/11 03:51:38;;;;;;;1.00;1.00;;;10.40;99.90;;;;;;5053779;28;20052;-72
2023/01/11 03:54:07;;;;;;;0.10;0.10;;;10.40;99.90;;;;;;5086172;28;20048;-71
2023/01/11 03:56:43;;;;;;;0.00;0.00;;;10.30;99.90;;;;;;5091380;28;20108;-72
2023/01/11 03:59:09;;;;;;;0.17;0.17;;;10.30;99.90;;;;;;5091191;28;20502;-72
2023/01/11 04:01:36;;;;;;;0.30;0.30;;;10.30;99.90;;;;;;5080514;28;20044;-71
2023/01/11 04:04:01;;;;;;;0.10;0.10;;;10.30;99.90;;;;;;5096104;28;20043;-71
2023/01/11 04:06:28;;;;;;;1.02;1.00;;;10.30;99.90;;;;;;5091811;28;20036;-71
2023/01/11 04:08:53;;;;;;;0.30;0.30;;;10.40;99.90;;;;;;5083382;28;20040;-71
2023/01/11 04:11:19;;;;;;;1.75;0.65;;;10.40;99.90;;;;;;5113452;28;20044;-71
2023/01/11 04:13:45;;;;;;;0.75;0.50;;;10.40;99.90;;;;;;5100112;28;20047;-71
2023/01/11 04:16:10;;;;;;;10.95;2.05;;;10.40;99.90;;;;;;5094652;28;20060;-72
2023/01/11 04:18:36;;;;;;;0.50;0.50;;;10.40;99.90;;;;;;5086479;28;20131;-71
2023/01/11 04:21:02;;;;;;;0.25;0.25;;;10.30;99.90;;;;;;5090110;28;20610;-72
2023/01/11 04:23:27;;;;;;;0.10;0.10;;;10.30;99.90;;;;;;5075047;28;20037;-72
2023/01/11 04:25:53;;;;;;;0.65;0.65;;;10.30;99.90;;;;;;5079090;28;20037;-72
2023/01/11 04:28:18;;;;;;;0.10;0.10;;;10.20;99.90;;;;;;5083577;28;20483;-72
2023/01/11 04:30:44;;;;;;;0.10;0.10;;;10.20;99.90;;;;;;5094100;28;20384;-71
2023/01/11 04:33:12;;;;;;;2.72;1.05;;;10.20;99.90;;;;;;5101150;28;20112;-71
2023/01/11 04:35:37;;;;;;;2.10;1.23;;;10.20;99.90;;;;;;5083229;28;20041;-71
2023/01/11 04:38:03;;;;;;;0.10;0.10;;;10.20;99.90;;;;;;5067849;28;20138;-72
2023/01/11 04:40:28;;;;;;;0.08;0.08;;;10.20;99.90;;;;;;5102150;28;20483;-72
2023/01/11 04:42:54;;;;;;;1.25;1.20;;;10.20;99.90;;;;;;5059730;28;20506;-72
2023/01/11 04:45:20;;;;;;;1.42;1.33;;;10.20;99.90;;;;;;5094020;28;20036;-72
2023/01/11 04:47:51;;;;;;;0.00;0.00;;;10.20;99.90;;;;;;5080322;28;20040;-72
2023/01/11 04:50:17;;;;;;;0.28;0.28;;;10.20;99.90;;;;;;5094769;28;20083;-71
2023/01/11 04:52:43;;;;;;;0.10;0.10;;;10.20;99.90;;;;;;5104506;28;20088;-72
2023/01/11 04:55:08;;;;;;;1.50;1.40;;;10.30;99.90;;;;;;5097054;28;20147;-72
2023/01/11 04:57:34;;;;;;;0.13;0.13;;;10.20;99.90;;;;;;5113697;28;20040;-72
2023/01/11 04:59:59;;;;;;;1.23;1.05;;;10.20;99.90;;;;;;5080818;28;20044;-72
2023/01/11 05:02:25;;;;;;;6.75;2.83;;;10.20;99.90;;;;;;5096043;28;20472;-72
2023/01/11 05:04:50;;;;;;;0.43;0.43;;;10.20;99.90;;;;;;5106758;28;20388;-72
2023/01/11 05:07:16;;;;;;;0.90;0.90;;;10.20;99.90;;;;;;5094298;28;20075;-71
2023/01/11 05:09:42;;;;;;;1.92;1.75;;;10.20;99.90;;;;;;5102209;28;20373;-71
2023/01/11 05:12:07;;;;;;;0.10;0.10;;;10.10;99.90;;;;;;5084672;28;20508;-71
2023/01/11 05:14:33;;;;;;;0.10;0.10;;;10.10;99.90;;;;;;5091767;28;20048;-72
2023/01/11 05:16:58;;;;;;;0.10;0.10;;;10.00;99.90;;;;;;5089114;28;20071;-72
2023/01/11 05:19:24;;;;;;;0.30;0.30;;;10.00;99.90;;;;;;5087037;28;20048;-72
2023/01/11 05:21:50;;;;;;;0.10;0.10;;;9.90;99.90;;;;;;5081037;28;20040;-72
2023/01/11 05:24:16;;;;;;;10.32;2.25;;;9.90;99.90;;;;;;5086178;28;20045;-72
2023/01/11 05:26:43;;;;;;;0.00;0.00;;;9.80;99.90;;;;;;5094341;28;20047;-71
2023/01/11 05:29:11;;;;;;;0.10;0.10;;;9.70;99.90;;;;;;5102572;28;20124;-71
2023/01/11 05:31:38;;;;;;;0.47;0.43;;;9.70;99.90;;;;;;5080879;28;20053;-72
2023/01/11 05:34:08;;;;;;;0.10;0.10;;;9.70;99.90;;;;;;5107037;28;20479;-72
2023/01/11 05:36:34;;;;;;;0.10;0.10;;;9.60;99.90;;;;;;5093385;28;20395;-72
2023/01/11 05:38:59;;;;;;;0.90;0.90;;;9.70;99.90;;;;;;5093804;28;20440;-72
2023/01/11 05:41:26;;;;;;;0.20;0.20;;;9.70;99.90;;;;;;5112320;28;20035;-71
2023/01/11 05:46:39;;;;;;;0.00;0.00;;;9.60;99.90;;;;;;5082070;28;20466;-71
2023/01/11 05:49:05;;;;;;;0.10;0.10;;;9.60;99.90;;;;;;5081190;28;20104;-71
2023/01/11 05:51:31;;;;;;;4.57;0.57;;;9.60;99.90;;;;;;5108754;28;20361;-72
2023/01/11 05:53:58;;;;;;;0.15;0.15;;;9.60;99.90;;;;;;5101572;28;20093;-71
2023/01/11 05:56:25;;;;;;;0.55;0.55;;;9.60;99.90;;;;;;5095936;28;20094;-71
2023/01/11 05:58:51;;;;;;;4.78;0.90;;;9.60;99.90;;;;;;5080523;28;20059;-71
2023/01/11 06:01:19;;;;;;;1.88;1.67;;;9.60;99.90;;;;;;5099867;28;20075;-71
2023/01/11 06:03:45;;;;;;;0.10;0.10;;;9.70;99.90;;;;;;5074711;28;20047;-71
2023/01/11 06:06:13;;;;;;;0.95;0.95;;;9.70;99.90;;;;;;5076436;28;20037;-71
2023/01/11 06:08:38;;;;;;;3.10;0.90;;;9.70;99.90;;;;;;5084580;28;20123;-70
2023/01/11 06:11:04;;;;;;;0.10;0.10;;;9.70;99.90;;;;;;5095636;28;20123;-71
2023/01/11 06:13:32;;;;;;;1.13;1.05;;;9.70;99.90;;;;;;5107366;28;20055;-71
2023/01/11 06:16:00;;;;;;;0.10;0.10;;;9.80;99.90;;;;;;5111495;28;20047;-71
2023/01/11 06:18:31;;;;;;;3.42;1.25;;;9.70;99.90;;;;;;5099254;28;20035;-71
2023/01/11 06:20:57;;;;;;;6.50;1.00;;;9.80;99.90;;;;;;5066267;28;20092;-71
2023/01/11 06:23:23;;;;;;;0.10;0.10;;;9.80;99.90;;;;;;5054438;28;20072;-71
2023/01/11 06:25:49;;;;;;;0.40;0.40;;;9.80;99.90;;;;;;5084292;28;20055;-71
2023/01/11 06:28:15;;;;;;;0.10;0.10;;;9.70;99.90;;;;;;5096973;28;20075;-71
2023/01/11 06:30:41;;;;;;;0.20;0.20;;;9.70;99.90;;;;;;5091574;28;20049;-71
2023/01/11 06:33:07;;;;;;;0.10;0.10;;;9.70;99.90;;;;;;5085912;28;20225;-71
2023/01/11 06:35:42;;;;;;;0.20;0.20;;;9.70;99.90;;;;;;5100407;28;20039;-71
2023/01/11 06:38:11;;;;;;;0.10;0.10;;;9.70;99.90;;;;;;5079917;28;20047;-71
2023/01/11 06:40:38;;;;;;;0.30;0.30;;;9.70;99.90;;;;;;5080526;28;20040;-71
2023/01/11 06:43:04;;;;;;;0.10;0.10;;;9.60;99.90;;;;;;5076574;28;20082;-71
2023/01/11 06:45:30;;;;;;;0.22;0.22;;;9.60;99.90;;;;;;5086734;28;20075;-71
2023/01/11 06:47:56;;;;;;;0.10;0.10;;;9.60;99.90;;;;;;5084143;28;20052;-71
2023/01/11 06:50:21;;;;;;;0.20;0.20;;;9.60;99.90;;;;;;5093148;28;20096;-71
2023/01/11 06:52:55;;;;;;;0.00;0.00;;;9.50;99.90;;;;;;5059212;28;20511;-72
2023/01/11 06:55:23;;;;;;;0.10;0.10;;;9.50;99.90;;;;;;5100103;28;20036;-71
2023/01/11 06:57:48;;;;;;;0.00;0.00;;;9.50;99.90;;;;;;5080845;28;20052;-71
2023/01/11 07:00:15;;;;;;;0.00;0.00;;;9.50;99.90;;;;;;5085744;28;20141;-71
2023/01/11 07:02:41;;;;;;;0.10;0.10;;;9.50;99.90;;;;;;5064884;28;20068;-71
2023/01/11 07:05:06;;;;;;;0.65;0.65;;;9.40;99.90;;;;;;5079685;28;20044;-70
2023/01/11 07:07:32;;;;;;;0.10;0.10;;;9.40;99.90;;;;;;5075172;28;20046;-71
2023/01/11 07:09:58;;;;;;;0.10;0.10;;;9.40;99.90;;;;;;5092560;28;20093;-70
2023/01/11 07:12:23;;;;;;;6.32;2.08;;;9.30;99.90;;;;;;5096820;28;20040;-71
2023/01/11 07:14:49;;;;;;;0.00;0.00;;;9.30;99.90;;;;;;5059380;28;20145;-71
2023/01/11 07:17:14;;;;;;;0.10;0.10;;;9.30;99.90;;;;;;5084533;28;20048;-70
2023/01/11 07:19:40;;;;;;;0.00;0.00;;;9.20;99.90;;;;;;5099886;28;20036;-71
2023/01/11 07:22:05;;;;;;;0.20;0.20;;;9.20;99.90;;;;;;5087910;28;20044;-71
2023/01/11 07:24:31;;;;;;;0.30;0.30;;;9.20;99.90;;;;;;5088629;28;20040;-71
2023/01/11 07:27:00;;;;;;;0.10;0.10;;;9.30;99.90;;;;;;5062754;28;20044;-71
2023/01/11 07:29:26;;;;;;;0.13;0.13;;;9.30;99.90;;;;;;5077611;28;20028;-71
2023/01/11 07:31:51;;;;;;;0.10;0.10;;;9.20;99.90;;;;;;5091830;28;20043;-71
2023/01/11 07:34:17;;;;;;;3.10;1.65;;;9.20;99.90;;;;;;5080731;28;20463;-72
2023/01/11 07:36:42;;;;;;;0.70;0.70;;;9.20;99.90;;;;;;5077241;28;20061;-72
2023/01/11 07:39:08;;;;;;;0.10;0.10;;;9.20;99.90;;;;;;5088100;28;20040;-72
2023/01/11 07:44:18;;;;;;;0.10;0.10;;;9.20;99.90;;;;;;5075816;28;20055;-72
2023/01/11 07:46:43;;;;;;;0.10;0.10;;;9.20;99.90;;;;;;5092105;28;20052;-72
2023/01/11 07:49:10;;;;;;;0.10;0.10;;;9.20;99.90;;;;;;5071194;28;20495;-72
2023/01/11 07:51:35;;;;;;;0.00;0.00;;;9.20;99.90;;;;;;5106096;28;20048;-72
2023/01/11 07:54:02;;;;;;;0.00;0.00;;;9.20;99.90;;;;;;5100569;28;20392;-71
2023/01/11 07:56:29;;;;;;;0.00;0.00;;;9.10;99.90;;;;;;5088872;28;20048;-71
2023/01/11 07:58:55;;;;;;;0.30;0.30;;;9.20;99.90;;;;;;5073562;28;20044;-71
2023/01/11 08:01:21;;;;;;;0.68;0.68;;;9.10;99.90;;;;;;5094190;28;20047;-71
2023/01/11 08:03:47;;;;;;;0.10;0.10;;;9.10;99.90;;;;;;5080464;28;20056;-72
2023/01/11 08:06:16;;;;;;;0.10;0.10;;;9.10;99.90;;;;;;5091984;28;20039;-71
2023/01/11 08:08:43;;;;;;;0.10;0.10;;;9.00;99.90;;;;;;5088722;28;20036;-72
2023/01/11 08:16:38;;;;;;;0.10;0.10;;;8.90;99.90;;;;;;5064733;28;20044;-70
2023/01/11 08:19:03;;;;;;;0.00;0.00;;;8.90;99.90;;;;;;5075394;28;20397;-70
2023/01/11 08:21:29;;;;;;;0.47;0.47;;;8.90;99.90;;;;;;5080489;28;20058;-71
2023/01/11 08:23:56;;;;;;;1.95;1.38;;;8.90;99.90;;;;;;5098526;28;20048;-70
2023/01/11 08:26:26;;;;;;;0.00;0.00;;;8.80;99.90;;;;;;5081611;28;20043;-71
2023/01/11 08:28:53;;;;;;;1.80;1.65;;;8.80;99.90;;;;;;5069568;28;20104;-71
2023/01/11 08:31:19;;;;;;;0.10;0.10;;;8.80;99.90;;;;;;5091581;28;20503;-71
2023/01/11 08:33:45;;;;;;;0.10;0.10;;;8.70;99.90;;;;;;5100518;28;20105;-71
2023/01/11 08:36:12;;;;;;;0.10;0.10;;;8.70;99.90;;;;;;5084679;28;20040;-71
2023/01/11 08:38:38;;;;;;;0.10;0.10;;;8.70;99.90;;;;;;5109793;28;20040;-71
2023/01/11 08:41:09;;;;;;;0.10;0.10;;;8.70;99.90;;;;;;5094370;28;20055;-71
2023/01/11 08:43:36;;;;;;;0.10;0.10;;;8.70;99.90;;;;;;5079446;28;20049;-71
2023/01/11 08:46:01;;;;;;;0.05;0.05;;;8.70;99.90;;;;;;5109683;28;20063;-71
2023/01/11 08:48:27;;;;;;;0.08;0.08;;;8.70;99.90;;;;;;5110772;28;20051;-71
2023/01/11 08:50:53;;;;;;;0.10;0.10;;;8.70;99.90;;;;;;5089397;28;20071;-71
2023/01/11 08:53:22;;;;;;;0.30;0.30;;;8.70;99.90;;;;;;5104032;28;20043;-70
2023/01/11 08:55:48;;;;;;;0.10;0.10;;;8.70;99.90;;;;;;5105965;28;20032;-71
2023/01/11 08:58:14;;;;;;;0.10;0.10;;;8.70;99.90;;;;;;5089116;28;20702;-71
2023/01/11 09:00:40;;;;;;;0.03;0.03;;;8.70;99.90;;;;;;5096248;28;20040;-71
2023/01/11 09:03:06;;;;;;;0.00;0.00;;;8.70;99.90;;;;;;5099204;28;20396;-71
2023/01/11 09:05:32;;;;;;;0.10;0.10;;;8.70;99.90;;;;;;5088771;28;20043;-71
2023/01/11 09:07:57;;;;;;;0.00;0.00;;;8.70;99.90;;;;;;5079513;28;20421;-70
2023/01/11 09:10:26;;;;;;;0.57;0.57;;;8.60;99.90;;;;;;5063334;28;20070;-71
2023/01/11 09:12:55;;;;;;;0.10;0.10;;;8.70;99.90;;;;;;5096703;28;20087;-70
2023/01/11 09:15:21;;;;;;;0.10;0.10;;;8.70;99.90;;;;;;5101418;27;20493;-71
2023/01/11 09:17:47;;;;;;;0.28;0.28;;;8.70;99.90;;;;;;5091527;28;20086;-70
2023/01/11 09:20:13;;;;;;;0.00;0.00;;;8.70;99.90;;;;;;5106423;28;20067;-70
2023/01/11 09:22:39;;;;;;;0.60;0.60;;;8.70;99.90;;;;;;5098011;28;20028;-70
2023/01/11 09:25:05;;;;;;;0.10;0.10;;;8.70;99.90;;;;;;5090276;28;20098;-70
2023/01/11 09:27:31;;;;;;;0.55;0.55;;;8.70;99.90;;;;;;5099121;28;20118;-70
2023/01/11 09:29:57;;;;;;;0.10;0.10;;;8.80;99.90;;;;;;5085298;28;20079;-71
2023/01/11 09:32:22;;;;;;;0.40;0.40;;;8.80;99.90;;;;;;5082971;28;20407;-70
2023/01/11 09:34:49;;;;;;;0.20;0.20;;;8.80;99.90;;;;;;5082553;28;20047;-71
2023/01/11 09:37:15;;;;;;;1.35;1.00;;;8.80;99.90;;;;;;5083827;28;20055;-71
2023/01/11 09:39:41;;;;;;;0.08;0.08;;;8.90;99.90;;;;;;5104141;28;20394;-71
2023/01/11 09:42:30;;;;;;;0.05;0.05;;;8.90;99.90;;;;;;5085613;28;20043;-70
2023/01/11 09:45:04;;;;;;;0.10;0.10;;;8.90;99.90;;;;;;5083389;28;20041;-70
2023/01/11 09:47:41;;;;;;;0.22;0.22;;;9.00;99.90;;;;;;5095927;28;20052;-70
2023/01/11 09:50:25;;;;;;;0.00;0.00;;;9.00;99.90;;;;;;5081739;28;20052;-71
2023/01/11 09:52:55;;;;;;;0.10;0.10;;;9.10;99.90;;;;;;5083894;28;20079;-71
2023/01/11 09:55:34;;;;;;;0.40;0.40;;;9.10;99.90;;;;;;5099930;28;20028;-71
2023/01/11 09:58:22;;;;;;;0.30;0.30;;;9.10;99.90;;;;;;5076272;28;20122;-71
2023/01/11 10:00:52;;;;;;;1.27;0.77;;;9.20;99.90;;;;;;5093277;28;20052;-71
2023/01/11 10:03:35;;;;;;;3.75;1.08;;;9.20;99.90;;;;;;5073735;28;20051;-71
2023/01/11 10:06:36;;;;;;;0.10;0.10;;;9.20;99.90;;;;;;5100814;28;20155;-69
2023/01/11 10:09:16;;;;;;;3.72;1.75;;;9.20;99.90;;;;;;5072269;28;20543;-71
2023/01/11 10:12:12;;;;;;;0.10;0.10;;;9.30;99.90;;;;;;5071888;28;20380;-71
2023/01/11 10:14:56;;;;;;;0.73;0.73;;;9.40;99.90;;;;;;5093341;28;20040;-71
2023/01/11 10:17:43;;;;;;;0.10;0.10;;;9.40;99.90;;;;;;5070199;28;20377;-71
2023/01/11 10:20:26;;;;;;;0.40;0.40;;;9.40;99.90;;;;;;5098794;28;20036;-71
2023/01/11 10:23:00;;;;;;;0.10;0.10;;;9.50;99.90;;;;;;5074686;28;20475;-71
2023/01/11 10:25:37;;;;;;;3.13;2.40;;;9.60;99.90;;;;;;5089146;28;20079;-71
2023/01/11 10:28:30;;;;;;;3.42;1.80;;;9.60;99.90;;;;;;5106269;28;20865;-71
2023/01/11 10:39:41;;;;;;;0.20;0.20;;;10.00;99.90;;;;;;5100200;28;20054;-71
2023/01/11 10:42:11;;;;;;;0.50;0.50;;;10.00;99.90;;;;;;5084293;28;20115;-71
2023/01/11 10:44:45;;;;;;;0.10;0.10;;;10.10;99.90;;;;;;5087689;28;20049;-71
2023/01/11 10:47:16;;;;;;;0.00;0.00;;;10.10;99.90;;;;;;5090878;28;20043;-71
2023/01/11 10:50:11;;;;;;;0.10;0.10;;;10.10;99.90;;;;;;5081615;28;20146;-70
2023/01/11 10:52:50;;;;;;;0.10;0.10;;;10.10;99.90;;;;;;5084129;28;20036;-71
2023/01/11 10:55:25;;;;;;;0.10;0.10;;;10.10;99.90;;;;;;5083056;28;20051;-70
2023/01/11 10:58:23;;;;;;;0.10;0.10;;;10.20;99.90;;;;;;5088985;28;20051;-71
2023/01/11 11:01:07;;;;;;;0.22;0.22;;;10.20;99.90;;;;;;5069423;28;20396;-71
2023/01/11 11:03:51;;;;;;;0.10;0.10;;;10.20;99.90;;;;;;5074551;28;20078;-71
2023/01/11 11:06:28;;;;;;;9.30;1.98;;;10.20;99.90;;;;;;5067077;28;20052;-71
2023/01/11 11:09:18;;;;;;;0.10;0.10;;;10.10;99.90;;;;;;5070603;28;20052;-71
2023/01/11 11:11:58;;;;;;;0.20;0.20;;;10.20;99.90;;;;;;5081419;28;20048;-71
2023/01/11 11:14:35;;;;;;;1.25;1.00;;;10.20;99.90;;;;;;5084521;28;20496;-72
2023/01/11 11:17:38;;;;;;;0.03;0.03;;;10.30;99.90;;;;;;5075889;28;20126;-71
2023/01/11 11:20:18;;;;;;;0.10;0.10;;;10.30;99.90;;;;;;4969738;28;20512;-71
2023/01/11 11:22:44;;;;;;;0.10;0.10;;;10.30;99.90;;;;;;5075731;28;20385;-71
2023/01/11 11:25:26;;;;;;;7.32;1.08;;;10.20;99.90;;;;;;5083493;28;20117;-71
2023/01/11 11:28:06;;;;;;;0.00;0.00;;;10.20;99.90;;;;;;5070104;28;20048;-71
2023/01/11 11:30:37;;;;;;;0.40;0.40;;;10.20;99.90;;;;;;5089955;28;20067;-71
2023/01/11 11:33:23;;;;;;;1.90;1.27;;;10.30;99.90;;;;;;5104024;28;20051;-71
2023/01/11 11:35:58;;;;;;;0.10;0.10;;;10.30;99.90;;;;;;5063456;28;20045;-71
2023/01/11 11:38:29;;;;;;;0.68;0.68;;;10.30;99.90;;;;;;5079690;28;20390;-71
2023/01/11 11:40:58;;;;;;;0.10;0.10;;;10.40;99.90;;;;;;5077122;28;20388;-71
2023/01/11 11:43:25;;;;;;;0.10;0.10;;;10.40;99.90;;;;;;5092352;28;20113;-71
2023/01/11 11:45:59;;;;;;;0.10;0.10;;;10.40;99.90;;;;;;5091126;28;20399;-72
2023/01/11 11:48:28;;;;;;;0.10;0.10;;;10.50;99.90;;;;;;5066515;28;20562;-72
2023/01/11 11:51:00;;;;;;;0.10;0.10;;;10.50;99.90;;;;;;5081534;28;20080;-71
2023/01/11 11:53:54;;;;;;;0.10;0.10;;;10.50;99.90;;;;;;5089670;28;20434;-71
2023/01/11 11:56:36;;;;;;;0.20;0.20;;;10.40;99.90;;;;;;5105805;28;20043;-71
2023/01/11 11:59:08;;;;;;;0.98;0.57;;;10.40;99.90;;;;;;5097030;28;20055;-71
2023/01/11 12:01:39;;;;;;;0.00;0.00;;;10.30;99.90;;;;;;5081623;28;20123;-71
2023/01/11 12:04:17;;;;;;;0.30;0.30;;;10.30;99.90;;;;;;5094265;28;20420;-71
2023/01/11 12:06:46;;;;;;;0.10;0.10;;;10.30;99.90;;;;;;5082219;28;20763;-71
2023/01/11 12:09:28;;;;;;;0.55;0.55;;;10.30;99.90;;;;;;5095521;28;20117;-71
2023/01/11 12:11:54;;;;;;;0.38;0.38;;;10.30;99.90;;;;;;5070473;28;20056;-71
2023/01/11 12:14:34;;;;;;;0.35;0.35;;;10.30;99.90;;;;;;5088684;28;20042;-71
2023/01/11 12:17:14;;;;;;;0.55;0.55;;;10.30;99.90;;;;;;5096072;28;20403;-72
2023/01/11 12:19:46;;;;;;;0.10;0.10;;;10.40;99.90;;;;;;5077161;28;20055;-71
2023/01/11 12:22:23;;;;;;;0.10;0.10;;;10.40;99.90;;;;;;5086114;28;20062;-71
2023/01/11 12:25:07;;;;;;;0.10;0.10;;;10.60;99.90;;;;;;5094118;28;20043;-70
2023/01/11 12:27:35;;;;;;;;;;;10.70;99.90;;;;;;5073302;28;20041;-71
2023/01/11 12:30:25;;;;;;;0.17;0.17;;;10.60;99.90;;;;;;5089781;28;21664;-72
2023/01/11 12:33:21;;;;;;;0.10;0.10;;;10.50;99.90;;;;;;5101291;28;20491;-72
2023/01/11 12:36:02;;;;;;;0.55;0.55;;;10.40;99.90;;;;;;5098061;28;20093;-69
2023/01/11 12:39:03;;;;;;;2.80;2.60;;;10.30;99.90;;;;;;5067987;28;20047;-70
2023/01/11 12:41:46;;;;;;;5.10;2.00;;;10.30;99.90;;;;;;5095027;28;20060;-71
2023/01/11 12:44:36;;;;;;;2.55;1.10;;;10.40;99.90;;;;;;5068583;28;20127;-69
2023/01/11 12:47:16;;;;;;;0.52;0.52;;;10.30;99.90;;;;;;5077281;28;20053;-69
2023/01/11 12:50:23;;;;;;;0.10;0.10;;;10.30;99.90;;;;;;5092745;28;20040;-70
2023/01/11 12:53:04;;;;;;;0.10;0.10;;;10.20;99.90;;;;;;5093159;28;20048;-72
2023/01/11 12:56:17;;;;;;;9.38;0.70;;;10.10;99.90;;;;;;5077026;28;20036;-72
2023/01/11 12:58:52;;;;;;;1.60;1.50;;;10.10;99.90;;;;;;5018507;28;20052;-71
2023/01/11 13:01:46;;;;;;;2.50;2.30;;;10.10;99.90;;;;;;5091402;28;20111;-71
2023/01/11 13:04:37;;;;;;;6.72;2.35;;;10.10;99.90;;;;;;5089843;28;20052;-71
2023/01/11 13:07:17;;;;;;;0.10;0.10;;;10.20;99.90;;;;;;5095296;28;20085;-71
2023/01/11 13:10:02;;;;;;;0.55;0.55;;;10.30;99.90;;;;;;5060446;28;20392;-71
2023/01/11 13:12:44;;;;;;;0.63;0.63;;;10.30;99.90;;;;;;5103622;28;20043;-72
2023/01/11 13:15:18;;;;;;;0.10;0.10;;;10.20;99.90;;;;;;5090318;28;20395;-71
2023/01/11 13:18:19;;;;;;;0.00;0.00;;;10.30;99.90;;;;;;5096689;28;20039;-72
2023/01/11 13:20:55;;;;;;;0.63;0.63;;;10.40;99.90;;;;;;5078687;28;20385;-72
2023/01/11 13:23:45;;;;;;;0.80;0.80;;;10.30;99.90;;;;;;5056002;28;20487;-71
2023/01/11 13:26:35;;;;;;;1.65;1.55;;;10.30;99.90;;;;;;5089418;28;20039;-72
2023/01/11 13:29:26;;;;;;;0.10;0.10;;;10.30;99.90;;;;;;5076082;28;20131;-72
2023/01/11 13:31:54;;;;;;;0.47;0.25;;;10.30;99.90;;;;;;5095390;28;20101;-72
2023/01/11 13:34:28;;;;;;;1.92;1.75;;;10.40;99.90;;;;;;5087058;28;20044;-71
2023/01/11 13:37:04;;;;;;;1.13;0.60;;;10.30;99.90;;;;;;5079633;28;20514;-72
2023/01/11 13:39:57;;;;;;;0.52;0.52;;;10.30;99.90;;;;;;5075821;28;20437;-72
2023/01/11 13:42:29;;;;;;;0.10;0.10;;;10.40;99.90;;;;;;5056359;28;20436;-72
2023/01/11 13:45:12;;;;;;;0.60;0.35;;;10.50;99.90;;;;;;5086356;28;20429;-71
2023/01/11 13:47:43;;;;;;;14.60;1.77;;;10.30;99.90;;;;;;5095937;28;20075;-71
2023/01/11 13:50:51;;;;;;;0.65;0.65;;;10.20;99.90;;;;;;5077481;28;20043;-71